Time;durP1;ratioP1;P1;durP2;ratioP2;P2;SDS_P1;SDS_P2;PMS_P1;PMS_P2;Temp;Humidity;BMP_temperature;BMP_pressure;BME280_temperature;BME280_humidity;BME280_pressure;Samples;Min_cycle;Max_cycle;Signal;HPM_P1;HPM_P2
2022/06/01 00:00:48;;;;;;;4.60;4.20;;;;;;;9.55;100.00;100629.13;5051603;28;20354;-82
2022/06/01 00:03:15;;;;;;;6.95;4.15;;;;;;;9.52;100.00;100631.78;5037344;28;20045;-81
2022/06/01 00:05:43;;;;;;;4.70;3.67;;;;;;;9.51;100.00;100634.41;5025283;28;20060;-83
2022/06/01 00:08:10;;;;;;;4.60;4.20;;;;;;;9.47;100.00;100628.31;5055654;28;20111;-82
2022/06/01 00:10:36;;;;;;;6.18;4.35;;;;;;;9.47;100.00;100630.06;5047656;28;20045;-82
2022/06/01 00:13:03;;;;;;;6.05;4.05;;;;;;;9.47;100.00;100625.69;5036049;28;20466;-80
2022/06/01 00:15:31;;;;;;;5.80;4.18;;;;;;;9.46;100.00;100628.34;5038025;28;20530;-82
2022/06/01 00:18:00;;;;;;;5.35;3.83;;;;;;;9.41;100.00;100624.00;5039211;28;20159;-82
2022/06/01 00:20:28;;;;;;;4.78;3.75;;;;;;;9.40;100.00;100624.00;5039061;28;20045;-83
2022/06/01 00:22:56;;;;;;;4.28;3.45;;;;;;;9.40;100.00;100616.19;5033197;28;20128;-83
2022/06/01 00:25:23;;;;;;;3.95;3.20;;;;;;;9.39;100.00;100617.91;5037808;28;20507;-82
2022/06/01 00:27:50;;;;;;;3.45;3.10;;;;;;;9.37;100.00;100619.66;5047926;28;20049;-82
2022/06/01 00:30:18;;;;;;;3.53;3.17;;;;;;;9.38;100.00;100610.94;5032805;28;20151;-82
2022/06/01 00:32:45;;;;;;;3.70;3.45;;;;;;;9.40;100.00;100614.41;5051570;28;20049;-82
2022/06/01 00:35:15;;;;;;;4.85;3.30;;;;;;;9.42;100.00;100615.25;5035538;28;20052;-82
2022/06/01 00:37:43;;;;;;;4.18;3.50;;;;;;;9.46;100.00;100618.72;5050490;28;20044;-82
2022/06/01 00:40:13;;;;;;;4.55;3.42;;;;;;;9.48;100.00;100619.59;5051541;28;20518;-83
2022/06/01 00:42:49;;;;;;;5.88;3.15;;;;;;;9.49;100.00;100607.41;5052212;28;20040;-83
2022/06/01 00:45:21;;;;;;;4.95;3.38;;;;;;;9.52;100.00;100620.47;5045291;28;20045;-83
2022/06/01 00:47:48;;;;;;;4.03;3.25;;;;;;;9.54;100.00;100610.84;5036275;28;20059;-82
2022/06/01 00:50:37;;;;;;;4.07;3.28;;;;;;;9.56;99.97;100607.34;5048706;28;20390;-82
2022/06/01 00:53:14;;;;;;;3.88;3.47;;;;;;;9.60;99.58;100605.59;5051245;28;20055;-82
2022/06/01 00:55:48;;;;;;;3.78;3.22;;;;;;;9.63;99.27;100604.72;5032914;28;20052;-82
2022/06/01 00:58:21;;;;;;;3.83;3.17;;;;;;;9.66;99.14;100607.31;5040988;28;20661;-82
2022/06/01 01:00:50;;;;;;;5.35;3.05;;;;;;;9.67;99.22;100596.84;5048839;28;20471;-81
2022/06/01 01:03:18;;;;;;;3.70;3.40;;;;;;;9.67;98.93;100609.03;5035406;28;20429;-82
2022/06/01 01:05:51;;;;;;;3.42;3.10;;;;;;;9.67;98.94;100609.03;5053219;28;20109;-81
2022/06/01 01:08:18;;;;;;;3.63;2.92;;;;;;;9.65;99.44;100590.75;5036656;28;20163;-82
2022/06/01 01:10:44;;;;;;;4.82;2.88;;;;;;;9.62;98.98;100590.78;5048253;28;20045;-82
2022/06/01 01:13:15;;;;;;;2.75;2.50;;;;;;;9.61;99.24;100586.44;5054102;28;20044;-82
2022/06/01 01:15:52;;;;;;;5.88;3.00;;;;;;;9.61;99.29;100586.44;5040156;28;20056;-83
2022/06/01 01:18:23;;;;;;;4.93;3.15;;;;;;;9.61;99.24;100583.81;5039159;28;20048;-81
2022/06/01 01:21:01;;;;;;;3.30;3.00;;;;;;;9.64;99.41;100582.94;5047551;28;20406;-82
2022/06/01 01:23:44;;;;;;;3.42;3.13;;;;;;;9.65;99.36;100580.31;5050756;28;20159;-82
2022/06/01 01:26:11;;;;;;;2.97;2.78;;;;;;;9.68;99.17;100577.66;5036130;28;20047;-83
2022/06/01 01:28:37;;;;;;;4.00;2.75;;;;;;;9.71;99.36;100568.94;5052477;28;20044;-82
2022/06/01 01:31:18;;;;;;;2.65;2.55;;;;;;;9.74;98.76;100564.56;5037700;28;20110;-81
2022/06/01 01:33:48;;;;;;;3.08;2.78;;;;;;;9.77;98.59;100561.91;5053212;28;20072;-82
2022/06/01 01:36:17;;;;;;;3.60;2.95;;;;;;;9.80;98.39;100553.19;5039819;28;20051;-82
2022/06/01 01:38:52;;;;;;;2.95;2.65;;;;;;;9.83;98.38;100562.75;5039280;28;20044;-82
2022/06/01 01:41:39;;;;;;;3.00;2.70;;;;;;;9.88;98.21;100553.13;5050871;28;20052;-81
2022/06/01 01:44:31;;;;;;;3.83;2.83;;;;;;;9.91;97.69;100553.13;5055300;28;20094;-82
2022/06/01 01:46:59;;;;;;;5.90;2.33;;;;;;;9.93;97.47;100551.34;5051937;28;20051;-83
2022/06/01 01:49:30;;;;;;;4.25;2.92;;;;;;;9.92;97.49;100554.84;5033951;28;20045;-83
2022/06/01 01:52:00;;;;;;;2.42;2.20;;;;;;;9.92;97.70;100560.94;5038664;28;20040;-81
2022/06/01 01:54:45;;;;;;;5.72;3.38;;;;;;;9.94;97.76;100561.78;5035459;28;20044;-82
2022/06/01 01:57:31;;;;;;;3.00;2.78;;;;;;;9.93;97.61;100554.84;5040854;28;20064;-84
2022/06/01 02:00:29;;;;;;;3.05;2.75;;;;;;;9.95;97.60;100552.22;5050572;28;20633;-81
2022/06/01 02:03:24;;;;;;;2.90;2.70;;;;;;;9.96;98.01;100559.19;5050077;28;20350;-82
2022/06/01 02:06:15;;;;;;;2.88;2.65;;;;;;;9.98;97.53;100552.19;5033643;28;20044;-82
2022/06/01 02:08:48;;;;;;;3.72;3.08;;;;;;;9.98;97.08;100557.41;5051759;28;20049;-81
2022/06/01 02:14:51;;;;;;;3.03;2.83;;;;;;;9.99;97.16;100560.91;5039532;28;20036;-82
2022/06/01 02:17:29;;;;;;;3.40;2.97;;;;;;;9.99;97.00;100560.91;5053844;28;20418;-82
2022/06/01 02:20:13;;;;;;;5.88;3.95;;;;;;;9.97;97.36;100555.66;5049381;28;20475;-82
2022/06/01 02:22:41;;;;;;;4.72;3.88;;;;;;;9.96;97.64;100556.56;5055221;28;20048;-82
2022/06/01 02:25:11;;;;;;;3.03;2.72;;;;;;;9.97;97.24;100557.44;5054227;28;20397;-81
2022/06/01 02:27:41;;;;;;;4.13;3.60;;;;;;;9.95;97.31;100562.69;5038931;28;20044;-81
2022/06/01 02:30:24;;;;;;;3.10;2.58;;;;;;;9.93;97.37;100551.34;5049949;28;20048;-83
2022/06/01 02:32:52;;;;;;;3.47;3.10;;;;;;;9.95;97.77;100557.44;5053113;28;20040;-81
2022/06/01 02:35:22;;;;;;;2.28;2.13;;;;;;;9.93;97.58;100554.84;5033303;28;20068;-84
2022/06/01 02:37:55;;;;;;;5.53;2.83;;;;;;;9.94;97.79;100548.72;5034415;28;20443;-81
2022/06/01 02:40:26;;;;;;;2.60;2.40;;;;;;;9.97;97.78;100555.66;5046182;28;20056;-83
2022/06/01 02:42:54;;;;;;;2.72;2.50;;;;;;;10.03;97.84;100560.00;5034848;28;20124;-83
2022/06/01 02:45:24;;;;;;;2.85;2.65;;;;;;;10.07;97.43;100562.56;5035701;28;20059;-83
2022/06/01 02:47:53;;;;;;;2.83;2.63;;;;;;;10.12;96.84;100567.75;5036085;28;20040;-82
2022/06/01 02:50:27;;;;;;;3.50;3.17;;;;;;;10.17;96.67;100575.56;5045693;28;20045;-84
2022/06/01 02:52:55;;;;;;;3.80;2.95;;;;;;;10.21;96.26;100575.53;5053512;28;20041;-81
2022/06/01 02:55:23;;;;;;;8.70;3.58;;;;;;;10.29;95.30;100577.22;5039545;28;20057;-81
2022/06/01 02:57:51;;;;;;;3.35;3.03;;;;;;;10.34;94.13;100578.03;5038382;28;20128;-82
2022/06/01 03:00:33;;;;;;;4.13;3.30;;;;;;;10.35;93.87;100575.44;5057307;28;20214;-82
2022/06/01 03:03:02;;;;;;;4.35;3.58;;;;;;;10.38;93.27;100583.25;5040087;28;20045;-82
2022/06/01 03:05:34;;;;;;;4.63;2.17;;;;;;;10.41;92.85;100574.50;5056186;28;20405;-82
2022/06/01 03:08:02;;;;;;;3.70;3.40;;;;;;;10.44;92.77;100571.84;5052227;28;20055;-81
2022/06/01 03:10:29;;;;;;;6.38;3.63;;;;;;;10.43;92.30;100563.16;5053686;28;20048;-82
2022/06/01 03:12:57;;;;;;;3.45;3.15;;;;;;;10.44;92.68;100577.09;5025112;28;20040;-82
2022/06/01 03:15:25;;;;;;;5.20;2.92;;;;;;;10.42;92.83;100574.50;5056937;28;20049;-82
2022/06/01 03:17:53;;;;;;;3.15;2.70;;;;;;;10.42;92.59;100571.88;5056538;28;20068;-81
2022/06/01 03:20:23;;;;;;;2.80;2.60;;;;;;;10.42;92.96;100573.63;5050519;28;20051;-82
2022/06/01 03:23:09;;;;;;;3.83;2.85;;;;;;;10.42;92.83;100576.25;5037722;28;20414;-81
2022/06/01 03:25:37;;;;;;;3.15;2.95;;;;;;;10.41;92.39;100574.50;5060512;28;20048;-83
2022/06/01 03:28:06;;;;;;;4.18;3.33;;;;;;;10.41;91.27;100574.50;5038185;28;20049;-83
2022/06/01 03:30:34;;;;;;;3.60;3.30;;;;;;;10.45;91.15;100570.13;5038467;28;20046;-82
2022/06/01 03:33:01;;;;;;;3.47;3.17;;;;;;;10.46;90.59;100572.72;5040484;28;20051;-82
2022/06/01 03:35:32;;;;;;;4.57;3.33;;;;;;;10.50;90.84;100577.03;5054054;28;20122;-83
2022/06/01 03:37:59;;;;;;;4.72;3.47;;;;;;;10.54;89.38;100576.13;5046774;28;20486;-82
2022/06/01 03:40:28;;;;;;;3.70;3.38;;;;;;;10.58;89.08;100572.56;5052228;28;20408;-83
2022/06/01 03:42:55;;;;;;;4.53;2.97;;;;;;;10.62;87.69;100573.44;5038975;28;20047;-82
2022/06/01 03:48:08;;;;;;;2.97;2.45;;;;;;;10.69;86.30;100582.06;5056065;28;20032;-82
2022/06/01 03:50:36;;;;;;;3.72;3.42;;;;;;;10.72;86.04;100587.31;5034105;28;20430;-83
2022/06/01 03:53:03;;;;;;;6.25;3.58;;;;;;;10.73;85.47;100597.75;5050536;28;20056;-83
2022/06/01 03:55:34;;;;;;;3.85;3.45;;;;;;;10.75;85.21;100597.72;5042226;28;20055;-82
2022/06/01 03:58:01;;;;;;;5.70;2.65;;;;;;;10.74;85.14;100602.09;5055621;28;20435;-83
2022/06/01 04:00:29;;;;;;;4.82;3.60;;;;;;;10.73;85.24;100603.00;5041657;28;20114;-83
2022/06/01 04:02:56;;;;;;;3.15;2.90;;;;;;;10.71;85.75;100596.03;5039924;28;20056;-82
2022/06/01 04:05:24;;;;;;;3.30;3.00;;;;;;;10.71;85.32;100601.28;5054813;28;20059;-83
2022/06/01 04:07:51;;;;;;;4.85;3.65;;;;;;;10.69;84.98;100608.25;5037662;28;20052;-81
2022/06/01 04:10:17;;;;;;;3.25;2.42;;;;;;;10.68;84.96;100609.16;5033761;28;20052;-83
2022/06/01 04:12:44;;;;;;;4.47;4.07;;;;;;;10.64;84.85;100608.31;5053280;28;20102;-84
2022/06/01 04:15:12;;;;;;;6.05;3.67;;;;;;;10.67;84.83;100615.28;5034975;28;20144;-80
2022/06/01 04:17:39;;;;;;;4.18;3.10;;;;;;;10.70;84.66;100620.47;5040883;28;20052;-82
2022/06/01 04:20:07;;;;;;;4.32;3.55;;;;;;;10.74;83.88;100616.94;5040700;28;20052;-84
2022/06/01 04:22:36;;;;;;;4.55;4.10;;;;;;;10.81;83.74;100617.72;5050328;28;20045;-83
2022/06/01 04:25:02;;;;;;;3.13;2.85;;;;;;;10.86;83.52;100616.81;5039097;28;20048;-82
2022/06/01 04:27:29;;;;;;;4.32;3.92;;;;;;;10.90;83.27;100620.28;5036696;28;20518;-82
2022/06/01 04:29:55;;;;;;;6.10;3.60;;;;;;;10.97;82.61;100621.06;5057167;28;20052;-82
2022/06/01 04:32:31;;;;;;;5.35;4.63;;;;;;;11.01;82.33;100618.38;5058133;28;20055;-81
2022/06/01 04:34:58;;;;;;;5.15;4.75;;;;;;;11.07;81.75;100618.31;5056692;28;20331;-82
2022/06/01 04:37:25;;;;;;;5.78;4.05;;;;;;;11.11;81.65;100613.94;5055076;28;20071;-82
2022/06/01 04:39:51;;;;;;;5.03;4.50;;;;;;;11.18;81.42;100618.19;5055657;28;20044;-83
2022/06/01 04:42:18;;;;;;;4.90;4.50;;;;;;;11.26;81.04;100615.47;5055821;28;20031;-82
2022/06/01 04:44:44;;;;;;;5.90;4.55;;;;;;;11.34;80.50;100624.13;5041141;28;20048;-82
2022/06/01 04:47:11;;;;;;;6.47;4.45;;;;;;;11.41;80.08;100623.16;5041466;28;20044;-82
2022/06/01 04:49:38;;;;;;;5.10;4.60;;;;;;;11.50;78.81;100618.66;5036310;28;20106;-83
2022/06/01 04:52:05;;;;;;;4.78;4.35;;;;;;;11.57;78.33;100618.56;5039521;28;20049;-82
2022/06/01 04:54:32;;;;;;;5.38;4.18;;;;;;;11.66;77.48;100616.72;5053707;28;20047;-84
2022/06/01 04:56:59;;;;;;;3.70;3.33;;;;;;;11.73;77.79;100620.97;5041009;28;20102;-82
2022/06/01 04:59:25;;;;;;;4.85;3.85;;;;;;;11.75;77.14;100619.22;5057204;28;20451;-84
2022/06/01 05:01:52;;;;;;;4.85;4.45;;;;;;;11.71;76.91;100621.00;5054774;28;20052;-82
2022/06/01 05:04:18;;;;;;;5.28;4.72;;;;;;;11.62;76.56;100607.16;5038340;28;20041;-83
2022/06/01 05:06:45;;;;;;;6.68;5.38;;;;;;;11.50;77.74;100613.41;5056464;28;20051;-84
2022/06/01 05:09:11;;;;;;;6.65;5.03;;;;;;;11.46;77.89;100604.75;5037396;28;20045;-83
2022/06/01 05:11:38;;;;;;;6.75;4.38;;;;;;;11.47;77.41;100623.97;5039400;28;20048;-82
2022/06/01 05:14:05;;;;;;;4.53;4.15;;;;;;;11.47;77.53;100619.59;5041264;28;20347;-84
2022/06/01 05:16:32;;;;;;;5.25;4.40;;;;;;;11.56;76.97;100615.97;5055881;28;20048;-84
2022/06/01 05:18:59;;;;;;;5.43;3.90;;;;;;;11.72;76.78;100622.75;5039415;28;20090;-83
2022/06/01 05:21:25;;;;;;;4.75;3.88;;;;;;;11.96;75.84;100612.81;5035016;28;20053;-82
2022/06/01 05:23:52;;;;;;;4.78;4.38;;;;;;;12.23;73.21;100610.66;5031667;28;20041;-82
2022/06/01 05:26:18;;;;;;;4.57;4.18;;;;;;;12.34;72.94;100613.94;5039784;28;20136;-84
2022/06/01 05:28:45;;;;;;;4.00;3.70;;;;;;;12.43;71.46;100612.91;5041070;28;20044;-83
2022/06/01 05:31:14;;;;;;;7.40;4.18;;;;;;;12.49;71.12;100617.19;5040355;28;20052;-83
2022/06/01 05:33:44;;;;;;;4.55;3.67;;;;;;;12.56;69.95;100614.44;5072190;28;20127;-84
2022/06/01 05:36:14;;;;;;;7.38;4.50;;;;;;;12.56;70.19;100618.81;5040257;28;20052;-83
2022/06/01 05:38:42;;;;;;;4.57;3.97;;;;;;;12.55;69.97;100619.72;5054642;28;20064;-83
2022/06/01 05:41:08;;;;;;;5.72;5.20;;;;;;;12.58;70.54;100617.91;5039354;28;20470;-85
2022/06/01 05:43:36;;;;;;;7.38;4.95;;;;;;;12.68;70.34;100615.97;5056910;28;20077;-85
2022/06/01 05:46:03;;;;;;;5.15;4.25;;;;;;;12.74;69.10;100622.88;5044561;28;20358;-84
2022/06/01 05:48:30;;;;;;;4.70;4.30;;;;;;;12.73;69.49;100622.00;5057653;28;20115;-82
2022/06/01 05:50:56;;;;;;;5.05;4.28;;;;;;;12.79;69.43;100628.03;5050548;28;20082;-85
2022/06/01 05:53:23;;;;;;;4.65;3.78;;;;;;;12.84;69.56;100636.69;5056883;28;20048;-84
2022/06/01 05:55:50;;;;;;;6.30;4.22;;;;;;;12.99;69.72;100633.78;5044867;28;20053;-85
2022/06/01 05:58:27;;;;;;;10.63;5.47;;;;;;;13.04;69.03;100646.84;5055531;28;20044;-84
2022/06/01 06:00:56;;;;;;;6.47;4.85;;;;;;;13.01;69.24;100644.25;5035686;28;20102;-84
2022/06/01 06:03:24;;;;;;;7.32;4.20;;;;;;;12.93;69.50;100643.56;5059945;28;20387;-85
2022/06/01 06:08:35;;;;;;;5.82;4.65;;;;;;;12.74;70.13;100652.63;5043289;28;20464;-85
2022/06/01 06:11:02;;;;;;;6.32;5.15;;;;;;;12.66;70.31;100656.28;5040196;28;20052;-85
2022/06/01 06:13:29;;;;;;;6.57;5.82;;;;;;;12.58;69.97;100653.81;5046226;28;20052;-84
2022/06/01 06:15:55;;;;;;;5.90;5.25;;;;;;;12.48;70.17;100647.84;5044893;28;20044;-83
2022/06/01 06:18:22;;;;;;;6.10;5.50;;;;;;;12.40;70.54;100660.25;5042181;28;20040;-85
2022/06/01 06:20:48;;;;;;;9.20;6.07;;;;;;;12.31;71.31;100663.03;5041217;28;20111;-83
2022/06/01 06:23:15;;;;;;;5.68;5.25;;;;;;;12.33;71.48;100663.84;5042119;28;20048;-83
2022/06/01 06:25:42;;;;;;;8.75;6.30;;;;;;;12.37;71.72;100676.91;5040111;28;20067;-84
2022/06/01 06:28:09;;;;;;;6.47;5.60;;;;;;;12.45;71.19;100673.28;5038296;28;20056;-83
2022/06/01 06:30:38;;;;;;;6.85;6.15;;;;;;;12.53;70.49;100674.88;5044333;28;20135;-83
2022/06/01 06:33:06;;;;;;;8.55;7.20;;;;;;;12.66;70.10;100667.66;5057506;28;20130;-83
2022/06/01 06:35:33;;;;;;;7.30;6.57;;;;;;;12.88;69.60;100667.28;5052043;28;20044;-83
2022/06/01 06:38:00;;;;;;;8.45;7.10;;;;;;;13.13;68.78;100670.31;5039977;28;20468;-83
2022/06/01 06:40:27;;;;;;;8.45;7.22;;;;;;;13.28;66.91;100679.66;5035617;28;20045;-84
2022/06/01 06:42:54;;;;;;;10.65;7.60;;;;;;;13.27;66.88;100680.56;5053677;28;20045;-82
2022/06/01 06:45:22;;;;;;;7.68;6.97;;;;;;;13.32;67.13;100681.31;5058691;28;20041;-83
2022/06/01 06:47:49;;;;;;;8.80;7.22;;;;;;;13.51;66.58;100671.34;5056253;28;20044;-82
2022/06/01 06:50:20;;;;;;;11.45;7.95;;;;;;;13.65;66.09;100672.81;5039713;28;20418;-83
2022/06/01 06:52:46;;;;;;;9.57;5.78;;;;;;;13.72;65.40;100670.00;5036678;28;20044;-82
2022/06/01 06:55:14;;;;;;;9.70;5.93;;;;;;;13.80;64.83;100671.63;5041895;28;20064;-84
2022/06/01 06:57:43;;;;;;;6.80;6.20;;;;;;;13.95;64.78;100659.88;5057049;28;20473;-83
2022/06/01 07:00:11;;;;;;;7.90;6.85;;;;;;;14.04;63.11;100672.81;5058052;28;20055;-83
2022/06/01 07:02:38;;;;;;;7.32;6.63;;;;;;;13.97;63.63;100668.59;5047764;28;20059;-82
2022/06/01 07:05:06;;;;;;;6.20;5.60;;;;;;;13.97;63.44;100664.19;5060213;28;20043;-84
2022/06/01 07:07:32;;;;;;;7.35;6.22;;;;;;;14.05;63.66;100667.53;5054571;28;20199;-84
2022/06/01 07:09:59;;;;;;;7.45;5.55;;;;;;;14.28;62.85;100674.03;5038653;28;20048;-83
2022/06/01 07:12:26;;;;;;;6.25;5.22;;;;;;;14.60;62.42;100672.38;5032782;28;20458;-83
2022/06/01 07:14:52;;;;;;;7.35;5.90;;;;;;;14.89;61.45;100679.53;5044657;28;20409;-83
2022/06/01 07:17:19;;;;;;;7.20;6.50;;;;;;;15.08;60.79;100676.41;5054296;28;20717;-83
2022/06/01 07:19:45;;;;;;;10.15;6.57;;;;;;;15.10;60.43;100684.28;5045275;28;20095;-84
2022/06/01 07:22:12;;;;;;;7.35;6.22;;;;;;;15.22;60.16;100678.66;5040034;28;20110;-83
2022/06/01 07:24:39;;;;;;;13.73;6.93;;;;;;;15.74;58.93;100686.84;5051694;28;20123;-83
2022/06/01 07:27:05;;;;;;;17.20;9.05;;;;;;;16.37;56.96;100681.41;5055130;28;20528;-85
2022/06/01 07:29:32;;;;;;;12.50;8.30;;;;;;;16.38;56.14;100677.84;5054804;28;20127;-82
2022/06/01 07:31:58;;;;;;;18.60;8.65;;;;;;;16.10;56.60;100680.50;5054198;28;20139;-81
2022/06/01 07:34:25;;;;;;;8.05;7.30;;;;;;;16.28;55.63;100674.66;5037742;28;20045;-82
2022/06/01 07:36:51;;;;;;;25.42;9.25;;;;;;;16.33;56.13;100682.41;5043135;28;20479;-82
2022/06/01 07:44:52;;;;;;;6.80;5.05;;;;;;;17.82;51.70;100680.72;5054606;28;20036;-79
2022/06/01 07:47:20;;;;;;;11.57;6.65;;;;;;;17.99;51.23;100675.66;5027191;28;20044;-82
2022/06/01 07:49:47;;;;;;;9.63;5.03;;;;;;;18.56;50.73;100680.44;5043128;28;20076;-79
2022/06/01 07:52:16;;;;;;;13.77;4.88;;;;;;;19.29;48.08;100688.78;5047309;28;20483;-84
2022/06/01 07:54:44;;;;;;;7.70;4.47;;;;;;;19.37;47.08;100685.81;5045513;28;20044;-84
2022/06/01 07:57:12;;;;;;;4.60;4.20;;;;;;;19.09;47.66;100683.53;5048040;28;20060;-84
2022/06/01 07:59:39;;;;;;;8.05;5.45;;;;;;;18.89;47.02;100687.94;5062270;28;20848;-84
2022/06/01 08:02:09;;;;;;;4.70;3.97;;;;;;;18.46;47.83;100694.97;5059153;28;20505;-82
2022/06/01 08:04:38;;;;;;;6.03;4.32;;;;;;;18.18;49.35;100693.47;5057680;28;20326;-83
2022/06/01 08:07:06;;;;;;;8.48;3.97;;;;;;;18.12;49.32;100697.25;5059522;28;20140;-83
2022/06/01 08:09:32;;;;;;;7.22;4.97;;;;;;;18.18;49.15;100694.31;5060330;28;20044;-82
2022/06/01 08:14:43;;;;;;;7.90;4.68;;;;;;;18.38;48.74;100697.09;5063592;28;20470;-84
2022/06/01 08:17:10;;;;;;;7.20;3.88;;;;;;;18.43;48.41;100703.06;5055317;28;20075;-84
2022/06/01 08:19:36;;;;;;;4.53;3.33;;;;;;;18.27;48.77;100703.69;5058750;28;20195;-83
2022/06/01 08:22:03;;;;;;;5.60;3.75;;;;;;;18.41;48.03;100703.16;5042923;28;20386;-82
2022/06/01 08:24:31;;;;;;;5.90;4.40;;;;;;;18.47;47.57;100702.03;5042396;28;20056;-81
2022/06/01 08:26:57;;;;;;;3.95;3.53;;;;;;;18.29;46.32;100714.22;5059228;28;20060;-82
2022/06/01 08:29:24;;;;;;;3.90;3.60;;;;;;;17.84;47.61;100716.81;5031807;28;20457;-83
2022/06/01 08:31:50;;;;;;;4.10;3.72;;;;;;;17.60;48.33;100712.44;5053836;28;20505;-82
2022/06/01 08:34:17;;;;;;;4.95;4.57;;;;;;;17.33;49.46;100725.78;5041512;28;20141;-80
2022/06/01 08:36:46;;;;;;;4.28;3.97;;;;;;;17.30;49.87;100724.09;5041803;28;20569;-82
2022/06/01 08:39:13;;;;;;;4.63;4.22;;;;;;;17.51;49.63;100721.59;5040420;28;20099;-83
2022/06/01 08:41:41;;;;;;;6.47;4.32;;;;;;;17.51;49.17;100724.25;5042350;28;20298;-82
2022/06/01 08:44:42;;;;;;;3.35;3.15;;;;;;;17.61;49.20;100727.41;5049190;28;20098;-82
2022/06/01 08:47:37;;;;;;;4.38;4.03;;;;;;;17.90;48.53;100717.50;5017968;28;20147;-84
2022/06/01 08:50:16;;;;;;;5.00;3.95;;;;;;;18.77;46.56;100710.50;5040587;28;20350;-83
2022/06/01 08:52:43;;;;;;;6.70;4.70;;;;;;;19.56;45.61;100698.25;5059452;28;20044;-83
2022/06/01 08:55:10;;;;;;;4.72;4.32;;;;;;;20.92;42.59;100697.91;5046293;28;20090;-83
2022/06/01 08:57:49;;;;;;;3.92;3.63;;;;;;;21.70;39.87;100692.03;5056049;28;20117;-84
2022/06/01 09:00:21;;;;;;;4.07;3.67;;;;;;;22.41;38.54;100695.22;5056314;28;20124;-85
2022/06/01 09:03:01;;;;;;;3.38;3.08;;;;;;;23.59;36.58;100681.88;5057718;28;20156;-82
2022/06/01 09:05:57;;;;;;;5.03;4.40;;;;;;;24.60;34.13;100688.75;5053415;28;20045;-84
2022/06/01 09:08:53;;;;;;;4.40;4.00;;;;;;;23.36;35.71;100690.50;5048869;28;20055;-84
2022/06/01 09:11:31;;;;;;;4.50;4.05;;;;;;;22.95;36.78;100708.06;5054389;28;20044;-83
2022/06/01 09:14:06;;;;;;;4.05;3.63;;;;;;;23.77;35.97;100703.06;5040606;28;20496;-83
2022/06/01 09:16:40;;;;;;;7.30;4.85;;;;;;;23.80;35.36;100702.88;5057996;28;20430;-82
2022/06/01 09:19:17;;;;;;;5.30;4.82;;;;;;;22.01;37.74;100700.16;5041203;28;20048;-82
2022/06/01 09:24:43;;;;;;;5.75;4.93;;;;;;;18.41;45.55;100713.75;5048338;28;20395;-81
2022/06/01 09:27:13;;;;;;;6.20;5.57;;;;;;;17.98;46.77;100720.75;5053472;28;20111;-84
2022/06/01 09:29:53;;;;;;;6.72;5.63;;;;;;;17.72;48.08;100716.41;5041589;28;20052;-85
2022/06/01 09:32:30;;;;;;;6.45;4.78;;;;;;;17.49;48.62;100716.34;5061500;28;20050;-82
2022/06/01 09:35:04;;;;;;;5.72;4.70;;;;;;;17.20;48.63;100718.25;5039587;28;20041;-81
2022/06/01 09:37:37;;;;;;;5.30;4.72;;;;;;;17.75;47.61;100717.16;5040807;28;20055;-82
2022/06/01 09:40:26;;;;;;;7.50;5.43;;;;;;;19.48;44.84;100706.56;5054627;28;20391;-84
2022/06/01 09:42:54;;;;;;;4.88;4.45;;;;;;;21.63;40.34;100694.19;5043274;28;20048;-83
2022/06/01 09:45:46;;;;;;;6.70;4.93;;;;;;;23.17;37.78;100698.81;5059200;28;20882;-84
2022/06/01 09:48:24;;;;;;;2.97;2.42;;;;;;;24.34;34.59;100701.22;5055733;28;20045;-83
2022/06/01 09:51:13;;;;;;;1.70;1.70;;;;;;;23.66;34.01;100703.72;5035284;28;20060;-84
2022/06/01 09:53:54;;;;;;;2.90;1.35;;;;;;;22.35;35.74;100711.56;5046559;28;20052;-82
2022/06/01 09:56:40;;;;;;;2.28;1.80;;;;;;;22.30;36.20;100703.81;5055731;28;20054;-83
2022/06/01 10:07:28;;;;;;;4.00;3.50;;;;;;;24.24;33.46;100690.28;5042523;28;20731;-82
2022/06/01 10:10:01;;;;;;;3.08;2.75;;;;;;;25.45;32.09;100691.03;5039267;28;20135;-83
2022/06/01 10:12:43;;;;;;;2.80;2.53;;;;;;;24.68;31.50;100690.94;5042407;28;20394;-83
2022/06/01 10:15:32;;;;;;;3.30;3.00;;;;;;;22.25;36.18;100714.78;5043514;28;20094;-82
2022/06/01 10:18:23;;;;;;;3.83;3.53;;;;;;;19.81;43.37;100719.22;5044165;28;20056;-81
2022/06/01 10:20:58;;;;;;;5.05;4.63;;;;;;;18.09;50.59;100718.53;5037541;28;20081;-81
2022/06/01 10:23:53;;;;;;;6.13;5.60;;;;;;;17.29;54.23;100716.22;5060793;28;20465;-83
2022/06/01 10:26:25;;;;;;;5.93;5.35;;;;;;;17.16;54.48;100706.06;5038394;28;20048;-81
2022/06/01 10:28:59;;;;;;;4.97;4.53;;;;;;;18.76;51.88;100700.81;5038984;28;20093;-85
2022/06/01 10:31:38;;;;;;;3.55;3.22;;;;;;;21.55;45.45;100700.88;5041387;28;20059;-83
2022/06/01 10:34:21;;;;;;;2.70;2.60;;;;;;;23.89;39.14;100696.94;5039315;28;20575;-83
2022/06/01 10:37:47;;;;;;;2.45;2.35;;;;;;;25.22;36.66;100700.66;5041027;28;20131;-82
2022/06/01 10:40:23;;;;;;;2.97;2.50;;;;;;;27.22;33.41;100693.09;4950374;28;20046;-86
2022/06/01 10:43:19;;;;;;;3.47;3.00;;;;;;;28.73;30.60;100691.75;4979705;28;20054;-85
2022/06/01 10:46:00;;;;;;;3.13;2.95;;;;;;;29.26;27.74;100688.94;5054101;28;20152;-83
2022/06/01 10:48:42;;;;;;;3.78;3.50;;;;;;;29.33;28.63;100689.28;5059558;28;20083;-83
2022/06/01 10:51:18;;;;;;;4.82;4.53;;;;;;;29.27;26.43;100692.50;5053861;28;20133;-83
2022/06/01 10:54:05;;;;;;;4.03;3.63;;;;;;;28.63;26.69;100697.00;5045952;28;20469;-82
2022/06/01 10:56:32;;;;;;;4.00;3.03;;;;;;;28.57;28.37;100686.78;5058332;28;20037;-84
2022/06/01 10:59:08;;;;;;;5.45;3.60;;;;;;;29.59;27.49;100691.50;5042621;28;20056;-85
2022/06/01 11:01:57;;;;;;;3.78;3.47;;;;;;;29.96;26.34;100693.63;5053827;28;20764;-84
2022/06/01 11:04:58;;;;;;;4.80;4.30;;;;;;;27.75;27.96;100685.44;5052046;28;20052;-83
2022/06/01 11:07:50;;;;;;;3.35;3.15;;;;;;;25.18;31.63;100696.47;5053503;28;20052;-85
2022/06/01 11:10:40;;;;;;;3.60;3.30;;;;;;;23.31;34.53;100700.59;5072013;28;20055;-82
2022/06/01 11:13:26;;;;;;;4.80;3.80;;;;;;;21.82;37.35;100706.50;5059032;28;21384;-83
2022/06/01 11:16:28;;;;;;;5.05;4.28;;;;;;;21.97;37.86;100705.66;5061790;28;20044;-82
2022/06/01 11:19:26;;;;;;;4.05;3.72;;;;;;;22.80;36.52;100693.81;5053529;28;20106;-83
2022/06/01 11:22:18;;;;;;;3.90;3.60;;;;;;;22.79;36.42;100689.47;5055116;28;20533;-83
2022/06/01 11:25:08;;;;;;;4.68;3.88;;;;;;;22.09;37.91;100693.44;5033512;28;20524;-82
2022/06/01 11:28:16;;;;;;;5.28;4.78;;;;;;;22.00;40.29;100693.94;5048160;28;20149;-86
2022/06/01 11:31:06;;;;;;;4.85;4.55;;;;;;;23.12;38.71;100694.53;5058834;28;20048;-84
2022/06/01 11:34:13;;;;;;;4.75;4.35;;;;;;;24.78;36.06;100681.34;5057795;28;20055;-83
2022/06/01 11:37:15;;;;;;;4.10;3.78;;;;;;;24.63;35.31;100693.97;5042246;28;20524;-83
2022/06/01 11:40:01;;;;;;;4.07;3.78;;;;;;;22.74;37.29;100700.38;5046809;28;20041;-82
2022/06/01 11:42:56;;;;;;;4.22;3.90;;;;;;;21.15;41.02;100702.03;5048103;28;20398;-83
2022/06/01 11:45:32;;;;;;;5.88;5.40;;;;;;;20.09;44.84;100718.81;5061541;28;20045;-82
2022/06/01 11:48:12;;;;;;;5.75;5.28;;;;;;;19.12;47.62;100713.44;5042586;28;20402;-84
2022/06/01 11:51:16;;;;;;;6.05;5.47;;;;;;;18.52;51.83;100722.13;5038326;28;20377;-82
2022/06/01 11:53:42;;;;;;;7.78;6.05;;;;;;;18.54;52.42;100716.75;5048242;28;20044;-83
2022/06/01 11:56:17;;;;;;;6.45;5.93;;;;;;;18.88;55.20;100718.00;5058876;28;20298;-83
2022/06/01 11:58:57;;;;;;;5.95;5.45;;;;;;;19.46;51.69;100719.03;5043400;28;20044;-81
2022/06/01 12:01:44;;;;;;;6.38;5.70;;;;;;;19.97;50.11;100717.63;5045779;28;20102;-81
2022/06/01 12:04:29;;;;;;;6.45;5.85;;;;;;;20.12;48.11;100713.34;5060683;28;20076;-84
2022/06/01 12:07:18;;;;;;;6.35;5.78;;;;;;;20.10;48.38;100715.22;5042456;28;20054;-83
2022/06/01 12:10:00;;;;;;;6.63;6.03;;;;;;;20.29;48.45;100704.56;5059302;28;20049;-85
2022/06/01 12:12:33;;;;;;;7.72;7.00;;;;;;;20.53;48.62;100708.75;5056317;28;20086;-81
2022/06/01 12:15:29;;;;;;;7.07;6.20;;;;;;;19.92;47.47;100713.44;5057497;28;20046;-82
2022/06/01 12:18:21;;;;;;;7.60;5.18;;;;;;;19.07;49.34;100712.78;5061644;28;20060;-84
2022/06/01 12:20:52;;;;;;;4.63;4.22;;;;;;;18.70;49.60;100716.13;5061670;28;20049;-82
2022/06/01 12:28:56;;;;;;;3.35;3.08;;;;;;;21.72;41.68;100702.63;5047951;28;20037;-83